Time;durP1;ratioP1;P1;durP2;ratioP2;P2;SDS_P1;SDS_P2;PMS_P1;PMS_P2;Temp;Humidity;BMP_temperature;BMP_pressure;BME280_temperature;BME280_humidity;BME280_pressure;Samples;Min_cycle;Max_cycle;Signal;HPM_P1;HPM_P2
2022/05/25 00:00:10;;;;;;;2.83;0.80;;;;;;;17.14;59.00;99236.25;343454;28;1123;-71
2022/05/25 00:00:22;;;;;;;2.05;0.80;;;;;;;17.13;58.92;99237.19;343447;28;1063;-71
2022/05/25 00:00:36;;;;;;;1.25;0.70;;;;;;;17.12;58.77;99235.50;341951;28;1662;-71
2022/05/25 00:00:48;;;;;;;1.00;0.60;;;;;;;17.14;58.85;99232.75;341639;28;1088;-71
2022/05/25 00:01:04;;;;;;;0.68;0.50;;;;;;;17.13;58.48;99237.19;343330;28;1168;-71
2022/05/25 00:01:17;;;;;;;1.90;0.80;;;;;;;17.09;58.97;99233.06;343290;28;1059;-71
2022/05/25 00:01:30;;;;;;;2.03;0.90;;;;;;;17.06;59.30;99235.88;342012;28;1790;-72
2022/05/25 00:01:42;;;;;;;1.75;0.60;;;;;;;17.06;59.12;99235.88;340766;28;1591;-71
2022/05/25 00:01:54;;;;;;;1.95;0.70;;;;;;;17.05;58.55;99236.84;340687;29;1163;-70
2022/05/25 00:02:06;;;;;;;3.40;0.60;;;;;;;17.04;58.17;99235.16;340462;28;1824;-73
2022/05/25 00:02:18;;;;;;;3.00;0.70;;;;;;;17.04;58.88;99237.78;341778;28;1383;-71
2022/05/25 00:02:30;;;;;;;3.35;0.60;;;;;;;17.04;58.90;99232.53;341472;28;1797;-73
2022/05/25 00:02:43;;;;;;;1.90;0.60;;;;;;;17.02;57.66;99233.56;340850;28;1575;-71
2022/05/25 00:02:55;;;;;;;1.50;0.60;;;;;;;16.97;57.29;99241.75;340699;29;1324;-71
2022/05/25 00:03:07;;;;;;;1.38;0.68;;;;;;;16.95;56.99;99233.16;340904;28;1052;-73
2022/05/25 00:03:19;;;;;;;0.98;0.60;;;;;;;16.96;57.72;99230.44;340539;28;1567;-71
2022/05/25 00:03:33;;;;;;;1.05;0.60;;;;;;;16.95;57.06;99241.03;340588;28;1588;-72
2022/05/25 00:03:46;;;;;;;2.53;0.60;;;;;;;16.95;56.93;99227.91;341543;28;1661;-73
2022/05/25 00:03:59;;;;;;;2.97;0.65;;;;;;;16.95;57.01;99228.72;342255;28;1357;-71
2022/05/25 00:04:11;;;;;;;2.55;0.60;;;;;;;16.94;57.15;99231.44;342130;28;1802;-70
2022/05/25 00:04:23;;;;;;;2.28;0.60;;;;;;;16.92;56.95;99230.69;341988;28;1075;-74
2022/05/25 00:04:36;;;;;;;1.95;0.63;;;;;;;16.92;57.13;99228.06;340719;29;1284;-73
2022/05/25 00:04:49;;;;;;;0.88;0.60;;;;;;;16.92;56.75;99222.81;340005;29;1060;-73
2022/05/25 00:05:04;;;;;;;1.85;0.63;;;;;;;16.93;56.63;99229.78;340672;29;953;-71
2022/05/25 00:05:17;;;;;;;1.85;0.60;;;;;;;16.94;56.78;99232.31;341841;28;1300;-72
2022/05/25 00:05:30;;;;;;;0.88;0.57;;;;;;;16.92;56.78;99233.31;341948;28;1280;-71
2022/05/25 00:05:43;;;;;;;0.90;0.60;;;;;;;16.87;56.51;99230.19;340466;29;1324;-72
2022/05/25 00:05:57;;;;;;;0.82;0.57;;;;;;;16.85;56.67;99227.66;339490;29;1048;-71
2022/05/25 00:06:10;;;;;;;2.53;0.60;;;;;;;16.86;56.83;99231.09;339165;29;1074;-71
2022/05/25 00:06:22;;;;;;;2.95;0.70;;;;;;;16.86;56.82;99234.59;338382;28;2917;-72
2022/05/25 00:06:34;;;;;;;1.52;0.80;;;;;;;16.87;56.85;99230.19;341052;28;2408;-72
2022/05/25 00:06:46;;;;;;;1.50;0.80;;;;;;;16.84;56.55;99235.63;341810;28;1714;-71
2022/05/25 00:06:59;;;;;;;1.88;0.60;;;;;;;16.84;56.47;99235.63;341061;28;2397;-71
2022/05/25 00:07:13;;;;;;;1.77;0.60;;;;;;;16.84;56.62;99235.63;342253;28;1816;-71
2022/05/25 00:07:25;;;;;;;1.27;0.70;;;;;;;16.82;56.97;99230.50;341958;28;1229;-72
2022/05/25 00:07:37;;;;;;;1.80;0.70;;;;;;;16.80;57.17;99234.09;341577;28;1361;-71
2022/05/25 00:07:50;;;;;;;1.73;0.65;;;;;;;16.81;57.46;99230.56;341781;28;1319;-71
2022/05/25 00:08:03;;;;;;;1.48;0.70;;;;;;;16.81;57.22;99230.56;341525;28;1721;-72
2022/05/25 00:08:16;;;;;;;1.38;0.65;;;;;;;16.84;57.17;99230.38;342304;28;1667;-71
2022/05/25 00:08:28;;;;;;;1.23;0.60;;;;;;;16.84;57.28;99227.75;341269;28;1731;-71
2022/05/25 00:08:41;;;;;;;0.90;0.60;;;;;;;16.85;57.45;99232.06;341627;28;1610;-71
2022/05/25 00:08:53;;;;;;;0.70;0.57;;;;;;;16.84;57.64;99235.63;341136;28;2259;-74
2022/05/25 00:09:06;;;;;;;0.68;0.57;;;;;;;16.85;57.39;99237.31;340874;29;1145;-73
2022/05/25 00:09:18;;;;;;;1.50;0.52;;;;;;;16.84;57.25;99235.63;339506;29;1979;-73
2022/05/25 00:09:30;;;;;;;2.00;0.60;;;;;;;16.83;57.33;99233.94;339449;29;1632;-72
2022/05/25 00:09:42;;;;;;;2.25;0.60;;;;;;;16.82;57.28;99234.88;339432;29;1362;-71
2022/05/25 00:09:55;;;;;;;1.73;0.60;;;;;;;16.80;57.39;99229.69;339104;29;1545;-73
2022/05/25 00:10:08;;;;;;;1.52;0.60;;;;;;;16.82;57.51;99232.25;339682;29;1296;-72
2022/05/25 00:10:20;;;;;;;1.08;0.60;;;;;;;16.82;57.21;99232.25;339848;29;1737;-71
2022/05/25 00:10:32;;;;;;;2.40;0.63;;;;;;;16.82;57.22;99225.25;340341;29;1429;-72
2022/05/25 00:10:44;;;;;;;2.40;0.70;;;;;;;16.81;57.30;99231.41;338723;29;1730;-72
2022/05/25 00:10:57;;;;;;;2.88;0.80;;;;;;;16.83;57.30;99233.94;339646;29;1136;-71
2022/05/25 00:11:09;;;;;;;1.90;0.75;;;;;;;16.83;57.38;99234.78;339178;29;1088;-71
2022/05/25 00:11:22;;;;;;;1.88;0.75;;;;;;;16.83;57.64;99228.69;339948;29;1192;-71
2022/05/25 00:11:34;;;;;;;1.50;0.70;;;;;;;16.84;57.47;99227.75;339832;29;1663;-71
2022/05/25 00:11:47;;;;;;;1.33;0.65;;;;;;;16.83;58.03;99228.69;340726;29;1761;-71
2022/05/25 00:11:59;;;;;;;1.45;0.60;;;;;;;16.83;57.46;99232.16;341425;28;1063;-71
2022/05/25 00:12:12;;;;;;;0.85;0.60;;;;;;;16.84;57.64;99233.00;342093;28;1425;-71
2022/05/25 00:12:24;;;;;;;0.95;0.60;;;;;;;16.84;57.36;99235.63;342021;28;3700;-71
2022/05/25 00:12:37;;;;;;;0.90;0.60;;;;;;;16.83;57.28;99233.94;340970;28;1802;-72
2022/05/25 00:12:50;;;;;;;1.17;0.70;;;;;;;16.82;57.71;99242.75;341964;28;1700;-71
2022/05/25 00:13:02;;;;;;;1.80;0.73;;;;;;;16.84;57.59;99233.00;341914;28;1222;-72
2022/05/25 00:13:14;;;;;;;1.48;0.77;;;;;;;16.83;57.93;99234.78;340880;28;1851;-75
2022/05/25 00:13:26;;;;;;;2.10;0.70;;;;;;;16.83;58.08;99234.78;342095;28;1329;-72
2022/05/25 00:13:38;;;;;;;1.77;0.70;;;;;;;16.84;58.23;99230.38;341517;28;1561;-72
2022/05/25 00:13:50;;;;;;;1.55;0.70;;;;;;;16.83;58.69;99239.19;341661;28;1152;-71
2022/05/25 00:14:03;;;;;;;1.30;0.60;;;;;;;16.82;58.63;99232.25;342048;28;1046;-71
2022/05/25 00:14:15;;;;;;;1.38;0.60;;;;;;;16.83;58.76;99228.69;342149;28;1241;-72
2022/05/25 00:14:27;;;;;;;1.08;0.57;;;;;;;16.84;58.67;99236.47;341385;28;1809;-74
2022/05/25 00:14:40;;;;;;;1.05;0.50;;;;;;;16.86;58.67;99233.72;341085;28;1456;-72
2022/05/25 00:14:52;;;;;;;2.35;0.68;;;;;;;16.74;59.08;99236.19;341864;28;1018;-71
2022/05/25 00:15:05;;;;;;;2.55;0.75;;;;;;;16.82;59.00;99237.50;342177;28;1141;-71
2022/05/25 00:15:17;;;;;;;1.35;0.82;;;;;;;16.83;58.71;99241.81;342304;28;1031;-71
2022/05/25 00:15:29;;;;;;;1.13;0.80;;;;;;;16.81;58.68;99233.19;341574;28;1746;-71
2022/05/25 00:15:42;;;;;;;1.55;0.77;;;;;;;16.77;58.90;99241.22;342014;28;1253;-71
2022/05/25 00:15:54;;;;;;;3.53;0.90;;;;;;;16.81;59.02;99235.81;342221;28;1059;-72
2022/05/25 00:16:06;;;;;;;3.15;0.77;;;;;;;16.81;58.75;99231.41;342206;28;1071;-71
2022/05/25 00:16:18;;;;;;;2.45;0.77;;;;;;;16.81;59.02;99233.19;342047;28;1022;-71
2022/05/25 00:16:31;;;;;;;1.63;0.82;;;;;;;16.82;58.94;99237.50;341576;28;1615;-71
2022/05/25 00:16:43;;;;;;;1.35;0.70;;;;;;;16.83;58.75;99229.53;342280;28;1668;-74
2022/05/25 00:16:55;;;;;;;0.88;0.68;;;;;;;16.85;58.68;99232.91;341075;28;1216;-71
2022/05/25 00:17:08;;;;;;;0.77;0.70;;;;;;;16.86;58.25;99229.34;341242;29;750;-71
2022/05/25 00:17:20;;;;;;;0.80;0.65;;;;;;;16.89;58.26;99236.16;340959;28;1308;-71
2022/05/25 00:17:32;;;;;;;1.10;0.70;;;;;;;16.90;58.09;99232.59;340875;28;1743;-73
2022/05/25 00:17:44;;;;;;;1.67;0.70;;;;;;;16.90;58.04;99235.22;341524;28;1578;-73
2022/05/25 00:17:56;;;;;;;1.58;0.70;;;;;;;16.90;57.95;99232.59;341443;28;1510;-74
2022/05/25 00:18:08;;;;;;;2.60;0.77;;;;;;;16.91;57.60;99236.91;341059;28;1624;-75
2022/05/25 00:18:21;;;;;;;3.03;0.80;;;;;;;16.88;57.33;99230.09;341111;28;1164;-71
2022/05/25 00:18:33;;;;;;;2.70;0.80;;;;;;;16.87;57.24;99227.56;340682;28;1640;-71
2022/05/25 00:20:01;;;;;;;1.25;0.60;;;;;;;16.90;57.25;99232.59;340970;28;1242;-72
2022/05/25 00:20:14;;;;;;;2.22;0.80;;;;;;;16.91;58.11;99236.91;340664;29;1274;-71
2022/05/25 00:20:26;;;;;;;0.95;0.80;;;;;;;16.92;58.11;99230.69;340985;28;1173;-71
2022/05/25 00:20:38;;;;;;;1.65;0.70;;;;;;;16.90;58.21;99232.59;341606;28;1667;-71
2022/05/25 00:20:50;;;;;;;1.95;0.73;;;;;;;16.92;57.92;99228.06;340837;29;1959;-71
2022/05/25 00:21:03;;;;;;;1.63;0.70;;;;;;;16.92;57.54;99233.31;340964;28;1087;-73
2022/05/25 00:21:15;;;;;;;1.65;0.60;;;;;;;16.87;57.19;99233.63;340877;28;1043;-71
2022/05/25 00:21:28;;;;;;;1.70;0.50;;;;;;;16.86;57.15;99239.84;341041;28;2145;-73
2022/05/25 00:21:40;;;;;;;0.95;0.40;;;;;;;16.88;57.25;99231.84;341471;28;1461;-72
2022/05/25 00:21:52;;;;;;;1.20;0.50;;;;;;;16.88;57.17;99237.09;342281;28;1289;-73
2022/05/25 00:22:04;;;;;;;1.10;0.68;;;;;;;16.89;57.30;99233.53;340689;29;1077;-72
2022/05/25 00:22:17;;;;;;;0.98;0.63;;;;;;;16.89;57.64;99228.28;340999;28;1650;-72
2022/05/25 00:22:47;;;;;;;0.80;0.60;;;;;;;16.89;57.24;99228.28;340986;28;1591;-71
2022/05/25 00:22:59;;;;;;;2.25;0.65;;;;;;;16.91;57.65;99231.66;340655;28;1615;-71
2022/05/25 00:23:11;;;;;;;2.60;0.68;;;;;;;16.91;57.85;99232.50;339369;29;1052;-71
2022/05/25 00:23:23;;;;;;;3.40;0.80;;;;;;;16.92;58.15;99235.94;337829;29;1189;-71
2022/05/25 00:23:35;;;;;;;1.95;0.80;;;;;;;16.94;57.87;99234.06;337084;29;1850;-74
2022/05/25 00:23:47;;;;;;;1.27;0.90;;;;;;;16.93;58.13;99230.63;337822;29;1680;-73
2022/05/25 00:24:00;;;;;;;1.40;0.77;;;;;;;16.94;58.09;99231.44;338019;29;1243;-73
2022/05/25 00:24:12;;;;;;;2.00;0.60;;;;;;;16.95;57.92;99230.53;338207;29;1367;-71
2022/05/25 00:24:24;;;;;;;2.30;0.60;;;;;;;16.94;57.58;99227.06;338025;29;1060;-71
2022/05/25 00:24:36;;;;;;;1.45;0.68;;;;;;;16.95;57.26;99222.63;338672;29;2619;-71
2022/05/25 00:24:48;;;;;;;1.30;0.73;;;;;;;16.97;57.42;99231.25;339490;29;1504;-71
2022/05/25 00:25:00;;;;;;;1.20;0.75;;;;;;;16.94;58.00;99231.44;338897;29;1818;-74
2022/05/25 00:25:15;;;;;;;1.10;0.80;;;;;;;16.93;57.67;99224.53;339502;29;1770;-71
2022/05/25 00:25:33;;;;;;;1.25;0.70;;;;;;;16.92;57.94;99228.06;339707;29;1662;-74
2022/05/25 00:25:45;;;;;;;1.52;0.70;;;;;;;16.93;57.82;99228.00;340969;28;1730;-71
2022/05/25 00:25:57;;;;;;;1.25;0.68;;;;;;;16.94;57.86;99231.44;342032;28;1232;-72
2022/05/25 00:26:10;;;;;;;1.02;0.70;;;;;;;16.92;57.65;99223.69;342316;28;1730;-72
2022/05/25 00:26:22;;;;;;;1.15;0.70;;;;;;;16.93;57.57;99227.16;341867;28;1138;-72
2022/05/25 00:26:34;;;;;;;1.33;0.70;;;;;;;16.90;58.20;99222.09;340974;28;1674;-71
2022/05/25 00:26:47;;;;;;;1.65;0.70;;;;;;;16.92;57.80;99233.31;341323;28;1769;-72
2022/05/25 00:26:59;;;;;;;2.17;0.65;;;;;;;16.93;57.76;99227.16;341995;28;1099;-71
2022/05/25 00:27:11;;;;;;;2.60;0.80;;;;;;;16.92;58.00;99228.94;341920;28;1210;-71
2022/05/25 00:27:23;;;;;;;2.42;0.90;;;;;;;16.95;57.82;99225.25;342494;28;803;-72
2022/05/25 00:27:35;;;;;;;2.05;0.82;;;;;;;16.94;58.04;99236.69;340626;28;1880;-72
2022/05/25 00:27:48;;;;;;;2.00;0.60;;;;;;;16.96;58.12;99229.56;341525;28;1673;-75
2022/05/25 00:28:09;;;;;;;1.67;0.63;;;;;;;16.97;58.14;99229.47;341812;28;1835;-74
2022/05/25 00:28:21;;;;;;;0.77;0.70;;;;;;;16.99;57.67;99228.53;340595;29;1063;-71
2022/05/25 00:28:33;;;;;;;1.55;0.70;;;;;;;17.01;57.00;99230.13;340692;28;1725;-71
2022/05/25 00:28:45;;;;;;;2.33;0.60;;;;;;;17.00;57.43;99225.78;340572;28;1995;-71
2022/05/25 00:28:57;;;;;;;2.38;0.63;;;;;;;17.02;56.92;99223.91;340535;28;1609;-72
2022/05/25 00:29:09;;;;;;;1.13;0.55;;;;;;;17.02;56.71;99228.31;342299;28;745;-70
2022/05/25 00:29:21;;;;;;;1.58;0.60;;;;;;;17.02;56.55;99231.78;342111;28;1055;-70
2022/05/25 00:29:33;;;;;;;1.73;0.55;;;;;;;17.03;56.75;99225.59;340513;28;1994;-71
2022/05/25 00:29:45;;;;;;;1.60;0.60;;;;;;;17.02;56.45;99234.41;340620;28;1860;-72
2022/05/25 00:29:58;;;;;;;1.27;0.60;;;;;;;17.01;56.22;99237.16;342145;28;1026;-71
2022/05/25 00:30:12;;;;;;;0.90;0.63;;;;;;;17.02;56.38;99234.41;342166;28;1199;-71
2022/05/25 00:30:25;;;;;;;1.02;0.65;;;;;;;17.04;56.49;99235.16;342140;28;1026;-71
2022/05/25 00:30:39;;;;;;;1.25;0.70;;;;;;;17.05;56.68;99236.00;340966;28;1788;-71
2022/05/25 00:30:51;;;;;;;0.80;0.60;;;;;;;17.06;57.38;99235.88;341857;28;1119;-71
2022/05/25 00:31:03;;;;;;;0.70;0.50;;;;;;;17.05;57.48;99234.22;342311;28;1316;-72
2022/05/25 00:31:15;;;;;;;0.98;0.55;;;;;;;17.05;57.45;99239.47;341413;28;1670;-71
2022/05/25 00:31:27;;;;;;;0.98;0.52;;;;;;;17.05;57.81;99239.47;342012;28;1310;-71
2022/05/25 00:31:40;;;;;;;0.80;0.60;;;;;;;17.05;57.40;99234.22;341306;28;1485;-73
2022/05/25 00:31:52;;;;;;;0.93;0.75;;;;;;;17.05;57.14;99234.22;341519;28;1110;-72
2022/05/25 00:32:07;;;;;;;0.93;0.82;;;;;;;17.06;56.92;99238.50;342001;28;1178;-72
2022/05/25 00:32:19;;;;;;;0.85;0.80;;;;;;;17.06;56.74;99235.88;340655;29;1446;-72
2022/05/25 00:32:31;;;;;;;0.60;0.60;;;;;;;17.05;56.63;99231.59;339389;29;2135;-73
2022/05/25 00:32:44;;;;;;;1.20;0.70;;;;;;;17.06;56.46;99228.00;340406;29;1623;-71
2022/05/25 00:32:57;;;;;;;2.22;0.82;;;;;;;17.08;56.56;99233.16;339559;29;1189;-72
2022/05/25 00:33:10;;;;;;;2.03;0.77;;;;;;;17.07;57.16;99232.34;339424;29;1018;-71
2022/05/25 00:33:23;;;;;;;2.35;0.77;;;;;;;17.06;57.38;99235.88;338919;29;2116;-71
2022/05/25 00:33:35;;;;;;;1.80;0.73;;;;;;;17.07;57.23;99236.75;339904;29;1861;-73
2022/05/25 00:33:47;;;;;;;3.92;0.75;;;;;;;17.09;57.27;99229.63;339184;29;1642;-71
2022/05/25 00:33:59;;;;;;;3.72;0.80;;;;;;;17.07;57.31;99229.69;339478;29;1074;-72
2022/05/25 00:34:11;;;;;;;2.10;0.70;;;;;;;17.09;57.73;99235.69;338649;29;2002;-73
2022/05/25 00:34:23;;;;;;;2.20;0.70;;;;;;;17.07;57.96;99240.22;338842;29;1216;-71
2022/05/25 00:34:35;;;;;;;1.98;0.60;;;;;;;17.07;58.06;99234.97;339769;29;1891;-72
2022/05/25 00:34:47;;;;;;;2.40;0.70;;;;;;;17.06;57.71;99233.25;340165;29;1727;-72
2022/05/25 00:34:59;;;;;;;1.33;0.80;;;;;;;17.07;57.74;99234.97;339092;29;1055;-71
2022/05/25 00:35:15;;;;;;;1.58;0.80;;;;;;;17.08;57.59;99235.78;339347;29;1158;-70
2022/05/25 00:35:29;;;;;;;1.90;0.80;;;;;;;17.10;57.41;99234.78;339832;29;1416;-72
2022/05/25 00:35:42;;;;;;;1.35;0.82;;;;;;;17.07;57.39;99234.97;340320;29;1855;-74
2022/05/25 00:35:54;;;;;;;0.85;0.65;;;;;;;17.05;56.73;99236.84;341506;28;1675;-72
2022/05/25 00:36:06;;;;;;;0.80;0.50;;;;;;;17.05;56.76;99234.22;341876;28;1171;-73
2022/05/25 00:36:18;;;;;;;1.10;0.50;;;;;;;17.07;56.74;99234.13;341941;28;936;-71
2022/05/25 00:36:31;;;;;;;1.30;0.60;;;;;;;17.08;56.83;99236.66;341082;28;1702;-71
2022/05/25 00:36:43;;;;;;;1.30;0.60;;;;;;;17.06;57.42;99235.88;340277;28;1465;-71
2022/05/25 00:36:55;;;;;;;2.10;0.60;;;;;;;17.08;57.45;99238.41;340674;29;1295;-72
2022/05/25 00:37:08;;;;;;;1.98;0.63;;;;;;;17.07;58.00;99228.88;341754;28;1049;-71
2022/05/25 00:37:20;;;;;;;1.75;0.70;;;;;;;17.08;57.37;99234.03;341892;28;1204;-71
2022/05/25 00:37:32;;;;;;;1.00;0.70;;;;;;;17.09;57.61;99235.69;341188;28;1726;-73
2022/05/25 00:37:47;;;;;;;0.73;0.73;;;;;;;17.08;57.68;99239.28;340969;28;1777;-71
2022/05/25 00:37:59;;;;;;;0.93;0.70;;;;;;;17.08;57.49;99239.28;340932;28;1903;-71
2022/05/25 00:38:11;;;;;;;3.00;0.70;;;;;;;17.08;56.72;99233.16;341835;28;1240;-71
2022/05/25 00:38:23;;;;;;;3.13;0.70;;;;;;;17.09;56.89;99232.25;340970;29;956;-71
2022/05/25 00:38:35;;;;;;;2.85;0.70;;;;;;;17.09;56.79;99233.06;339875;29;1699;-73
2022/05/25 00:38:47;;;;;;;3.15;0.82;;;;;;;17.10;56.81;99241.78;341599;28;1853;-71
2022/05/25 00:38:59;;;;;;;2.65;0.80;;;;;;;17.10;56.51;99237.41;341940;28;1540;-71
2022/05/25 00:39:11;;;;;;;2.40;0.77;;;;;;;17.10;56.06;99237.41;342038;28;1024;-71
2022/05/25 00:39:24;;;;;;;0.50;0.50;;;;;;;17.10;56.17;99240.03;341591;28;2235;-73
2022/05/25 00:39:38;;;;;;;1.00;0.60;;;;;;;17.10;56.13;99237.41;340283;29;1872;-73
2022/05/25 00:39:50;;;;;;;1.70;0.75;;;;;;;17.10;56.29;99237.41;340623;28;1564;-74
2022/05/25 00:40:03;;;;;;;1.85;0.80;;;;;;;17.09;57.05;99233.06;339667;29;1096;-70
2022/05/25 00:40:27;;;;;;;2.38;0.68;;;;;;;17.08;57.28;99239.28;340090;29;1877;-71
2022/05/25 00:40:43;;;;;;;3.40;0.70;;;;;;;17.08;57.92;99243.66;341518;28;1500;-71
2022/05/25 00:40:57;;;;;;;2.13;0.60;;;;;;;17.08;58.18;99233.16;340629;29;1090;-72
2022/05/25 00:41:09;;;;;;;1.38;0.60;;;;;;;17.07;57.97;99237.59;340721;29;1165;-72
2022/05/25 00:41:23;;;;;;;1.38;0.70;;;;;;;17.08;57.96;99236.66;340826;29;1047;-72
2022/05/25 00:41:35;;;;;;;0.82;0.60;;;;;;;17.08;58.18;99238.41;340059;28;1657;-72
2022/05/25 00:41:49;;;;;;;0.90;0.70;;;;;;;17.07;58.14;99237.59;341591;28;1753;-73
2022/05/25 00:42:04;;;;;;;1.30;0.70;;;;;;;17.07;58.23;99237.59;341955;28;1079;-72
2022/05/25 00:42:16;;;;;;;0.95;0.57;;;;;;;17.07;57.73;99240.22;341918;28;1408;-72
2022/05/25 00:42:29;;;;;;;0.50;0.50;;;;;;;17.07;57.49;99242.84;341916;28;1712;-74
2022/05/25 00:42:41;;;;;;;0.65;0.63;;;;;;;17.08;56.97;99239.28;341761;28;1553;-71
2022/05/25 00:42:53;;;;;;;0.90;0.73;;;;;;;17.09;57.52;99240.94;342057;28;1048;-71
2022/05/25 00:43:06;;;;;;;1.00;0.70;;;;;;;17.09;56.97;99240.13;341832;28;1644;-72
2022/05/25 00:43:18;;;;;;;0.90;0.70;;;;;;;17.06;57.34;99241.13;341204;28;1824;-71
2022/05/25 00:43:30;;;;;;;0.75;0.70;;;;;;;17.06;58.40;99241.13;340677;28;1676;-71
2022/05/25 00:43:43;;;;;;;1.67;0.63;;;;;;;17.07;57.83;99242.84;341700;28;1553;-71
2022/05/25 00:43:56;;;;;;;2.00;0.73;;;;;;;17.08;57.67;99244.53;342376;28;1119;-71
2022/05/25 00:44:08;;;;;;;1.00;0.70;;;;;;;17.07;58.35;99242.00;342227;28;1188;-72
2022/05/25 00:44:21;;;;;;;0.95;0.60;;;;;;;17.05;57.94;99244.72;342208;28;1047;-71
2022/05/25 00:44:33;;;;;;;1.45;0.60;;;;;;;17.05;58.33;99244.72;341268;28;1721;-73
2022/05/25 00:44:45;;;;;;;2.47;0.68;;;;;;;17.05;58.72;99246.50;340944;28;1793;-72
2022/05/25 00:44:57;;;;;;;2.90;0.70;;;;;;;17.00;58.73;99238.91;341569;28;1617;-71
2022/05/25 00:45:11;;;;;;;3.03;0.82;;;;;;;17.00;58.87;99241.53;342202;28;1774;-71
2022/05/25 00:45:23;;;;;;;2.20;0.73;;;;;;;16.98;58.75;99243.44;341068;28;1074;-71
2022/05/25 00:45:40;;;;;;;3.28;0.80;;;;;;;16.99;58.52;99245.13;342167;28;1091;-71
2022/05/25 00:45:57;;;;;;;2.92;0.68;;;;;;;17.01;58.02;99242.41;342047;28;1167;-71
2022/05/25 00:46:16;;;;;;;1.20;0.70;;;;;;;16.99;58.12;99250.38;342419;28;1124;-72
2022/05/25 00:46:29;;;;;;;1.33;0.80;;;;;;;16.97;58.34;99247.84;340852;28;1514;-71
2022/05/25 00:46:42;;;;;;;1.42;0.75;;;;;;;16.97;58.10;99242.59;341027;28;1645;-72
2022/05/25 00:46:54;;;;;;;1.02;0.60;;;;;;;16.96;58.41;99248.81;341470;28;1747;-72
2022/05/25 00:47:08;;;;;;;0.60;0.60;;;;;;;16.94;58.56;99242.81;341047;28;1598;-71
2022/05/25 00:47:23;;;;;;;0.80;0.70;;;;;;;16.94;58.71;99248.06;341999;28;1818;-72
2022/05/25 00:47:38;;;;;;;1.48;0.70;;;;;;;16.94;58.43;99241.94;340651;28;1910;-72
2022/05/25 00:47:52;;;;;;;2.47;0.70;;;;;;;16.91;57.85;99252.66;340571;29;1663;-71
2022/05/25 00:48:10;;;;;;;3.03;0.70;;;;;;;16.92;57.42;99249.94;340759;29;1263;-73
2022/05/25 00:48:27;;;;;;;1.70;0.70;;;;;;;16.92;57.10;99249.09;340757;28;1179;-71
2022/05/25 00:48:50;;;;;;;1.60;0.80;;;;;;;16.93;56.84;99248.16;339958;29;1743;-73
2022/05/25 00:49:06;;;;;;;1.70;0.80;;;;;;;16.92;56.79;99254.34;340603;29;1087;-72
2022/05/25 00:49:22;;;;;;;1.90;0.70;;;;;;;16.87;57.23;99251.19;340868;29;1027;-72
2022/05/25 00:49:36;;;;;;;1.80;0.70;;;;;;;16.84;57.72;99251.38;340827;28;1573;-75
2022/05/25 00:49:48;;;;;;;1.13;0.70;;;;;;;16.85;57.28;99253.06;341799;28;1638;-73
2022/05/25 00:50:03;;;;;;;2.45;0.82;;;;;;;16.84;57.30;99251.38;342269;28;1324;-73
2022/05/25 00:50:18;;;;;;;3.10;0.90;;;;;;;16.84;57.36;99251.38;342355;28;1099;-71
2022/05/25 00:51:12;;;;;;;2.50;0.80;;;;;;;16.87;57.51;99251.19;341654;28;1939;-71
2022/05/25 00:51:15;;;;;;;1.90;0.80;;;;;;;16.86;57.50;99257.34;341068;28;1063;-71
2022/05/25 00:51:44;;;;;;;0.82;0.80;;;;;;;16.82;57.94;99258.50;341088;28;1164;-71
2022/05/25 00:52:03;;;;;;;0.80;0.60;;;;;;;16.83;57.97;99253.16;342390;28;1189;-71
2022/05/25 00:52:16;;;;;;;1.10;0.60;;;;;;;16.84;57.99;99256.63;342213;28;1238;-71
2022/05/25 00:52:28;;;;;;;2.38;0.80;;;;;;;16.80;58.23;99257.72;341616;28;1337;-71
2022/05/25 00:52:42;;;;;;;2.53;0.90;;;;;;;16.80;58.04;99257.72;341739;28;1601;-72
2022/05/25 00:52:54;;;;;;;2.17;0.80;;;;;;;16.79;58.03;99259.50;341724;28;1235;-71
2022/05/25 00:53:07;;;;;;;1.63;0.80;;;;;;;16.79;58.01;99254.25;342007;28;1120;-71
2022/05/25 00:53:21;;;;;;;3.85;0.70;;;;;;;16.78;58.08;99253.44;341600;28;1497;-71
2022/05/25 00:53:34;;;;;;;3.70;0.57;;;;;;;16.80;58.20;99255.09;340290;28;1779;-73
2022/05/25 00:53:52;;;;;;;1.52;0.65;;;;;;;16.78;58.29;99258.69;341955;28;1670;-73
2022/05/25 00:54:09;;;;;;;1.58;0.80;;;;;;;16.80;58.28;99249.84;340675;29;1241;-72
2022/05/25 00:55:01;;;;;;;1.40;0.75;;;;;;;16.79;58.07;99256.88;340983;29;1359;-71
2022/05/25 00:55:18;;;;;;;2.47;0.60;;;;;;;16.78;58.62;99258.69;338534;28;2330;-71
2022/05/25 00:55:31;;;;;;;1.60;0.65;;;;;;;16.80;58.71;99260.34;340389;29;1591;-72
2022/05/25 00:55:44;;;;;;;2.20;0.70;;;;;;;16.79;58.64;99254.25;339769;29;1500;-72
2022/05/25 00:55:56;;;;;;;2.83;0.80;;;;;;;16.82;58.30;99253.25;339605;29;1869;-72
2022/05/25 00:56:12;;;;;;;2.28;0.80;;;;;;;16.82;58.91;99263.75;341754;28;1718;-72
2022/05/25 00:56:27;;;;;;;1.75;0.73;;;;;;;16.82;59.43;99263.75;341849;28;1240;-74
2022/05/25 00:56:43;;;;;;;2.03;0.70;;;;;;;16.81;59.23;99259.44;342020;28;1179;-71
2022/05/25 00:57:00;;;;;;;1.95;0.73;;;;;;;16.80;59.47;99255.94;341866;28;1327;-72
2022/05/25 00:57:19;;;;;;;1.05;0.85;;;;;;;16.80;59.71;99255.94;341280;28;2137;-71
2022/05/25 00:57:38;;;;;;;1.73;0.73;;;;;;;16.83;59.55;99260.19;340900;28;1522;-71
2022/05/25 00:57:50;;;;;;;1.80;0.85;;;;;;;16.83;59.52;99257.56;341364;28;1719;-72
2022/05/25 00:58:02;;;;;;;2.00;0.90;;;;;;;16.84;59.49;99256.63;340982;28;1138;-71
2022/05/25 00:58:14;;;;;;;1.75;0.80;;;;;;;16.84;60.20;99261.88;340865;28;1169;-73
2022/05/25 00:58:27;;;;;;;1.80;0.70;;;;;;;16.84;60.02;99261.88;341415;28;1305;-71
2022/05/25 00:58:42;;;;;;;3.17;0.70;;;;;;;16.84;59.89;99257.47;339739;29;1865;-71
2022/05/25 00:59:29;;;;;;;2.67;0.70;;;;;;;16.85;60.02;99260.94;339462;29;1121;-71
2022/05/25 01:00:10;;;;;;;1.40;0.70;;;;;;;16.80;60.05;99262.97;335745;29;1867;-71
2022/05/25 01:00:25;;;;;;;1.50;0.77;;;;;;;16.81;59.69;99262.06;333291;29;1199;-72
2022/05/25 01:00:37;;;;;;;1.35;0.80;;;;;;;16.79;59.25;99264.75;334790;29;1533;-71
2022/05/25 01:00:49;;;;;;;1.50;0.82;;;;;;;16.81;59.28;99262.06;337040;29;2017;-71
2022/05/25 01:01:03;;;;;;;1.55;0.90;;;;;;;16.81;59.03;99262.91;339515;29;1112;-72
2022/05/25 01:01:15;;;;;;;1.25;0.80;;;;;;;16.78;58.89;99263.06;341432;28;1115;-71
2022/05/25 01:01:28;;;;;;;0.98;0.77;;;;;;;16.76;58.48;99265.81;341770;28;1196;-71
2022/05/25 01:01:42;;;;;;;1.00;0.80;;;;;;;16.77;58.75;99266.66;341420;28;1152;-71
2022/05/25 01:01:55;;;;;;;1.00;0.80;;;;;;;16.78;58.68;99263.06;342065;28;1015;-73
2022/05/25 01:02:08;;;;;;;1.05;0.77;;;;;;;16.72;58.60;99269.56;342329;28;1013;-71
2022/05/25 01:02:20;;;;;;;1.70;0.80;;;;;;;16.78;58.61;99269.19;342074;28;1003;-72
2022/05/25 01:02:40;;;;;;;1.50;0.80;;;;;;;16.77;58.60;99267.47;341043;28;1634;-71
2022/05/25 01:02:59;;;;;;;1.10;0.77;;;;;;;16.77;58.34;99267.47;341837;28;1975;-72
2022/05/25 01:03:13;;;;;;;1.20;0.70;;;;;;;16.77;58.38;99267.47;342169;28;871;-72
2022/05/25 01:03:25;;;;;;;1.13;0.70;;;;;;;16.77;58.54;99264.84;341583;28;1729;-71
2022/05/25 01:03:37;;;;;;;1.38;0.70;;;;;;;16.77;58.39;99264.03;340788;28;1695;-72
2022/05/25 01:03:49;;;;;;;1.52;0.68;;;;;;;16.74;58.49;99262.44;341853;28;1753;-71
2022/05/25 01:04:02;;;;;;;1.17;0.63;;;;;;;16.73;58.73;99260.75;340318;29;1914;-71
2022/05/25 01:04:15;;;;;;;0.82;0.60;;;;;;;16.74;58.51;99257.19;340458;29;1156;-72
2022/05/25 01:04:27;;;;;;;0.70;0.70;;;;;;;16.73;58.37;99265.16;340206;29;1781;-73
2022/05/25 01:04:39;;;;;;;1.13;0.80;;;;;;;16.72;58.81;99264.31;339991;28;1626;-71
2022/05/25 01:04:51;;;;;;;1.60;0.80;;;;;;;16.72;58.78;99264.31;340954;28;1708;-71
2022/05/25 01:05:03;;;;;;;1.92;0.80;;;;;;;16.68;58.65;99257.59;342076;28;1532;-71
2022/05/25 01:05:21;;;;;;;2.50;0.70;;;;;;;16.68;58.74;99267.22;341919;28;1026;-71
2022/05/25 01:05:38;;;;;;;2.85;0.73;;;;;;;16.69;58.80;99264.50;341418;28;1691;-71
2022/05/25 01:05:53;;;;;;;2.30;1.00;;;;;;;16.69;58.53;99264.50;341614;28;1694;-72
2022/05/25 01:06:12;;;;;;;2.20;0.93;;;;;;;16.67;58.73;99261.16;342115;28;1227;-71
2022/05/25 01:06:30;;;;;;;1.20;0.75;;;;;;;16.63;58.61;99254.41;341924;28;1165;-71
2022/05/25 01:06:50;;;;;;;1.00;0.70;;;;;;;16.64;58.78;99260.50;341978;28;1361;-71
2022/05/25 01:07:02;;;;;;;1.08;0.73;;;;;;;16.63;58.71;99254.41;340472;29;1067;-71
2022/05/25 01:07:36;;;;;;;1.88;0.80;;;;;;;16.63;58.56;99259.66;340555;29;1211;-72
2022/05/25 01:08:27;;;;;;;1.20;0.80;;;;;;;16.64;58.79;99261.34;339920;28;1023;-71
2022/05/25 01:08:39;;;;;;;0.98;0.75;;;;;;;16.68;58.65;99259.34;338398;28;1912;-70